»·PEaware :: WAT169 KRNO-KSNA

WAT169 :: KRNO-KSNA

FLIGHT INFORMATION

Flight Status: Arrived
Operator:
Walker Air Transport
More flights by this operator :: More flights under this callsign
Pilot: Marty P. (27464)
Aircraft: DASSAULT AVIATION FALCON 50
(FA50)
More flights by this aircraft type
Origin: KRNO Reno/Tahoe Intl
United States
Destination: KSNA John Wayne-Orange Co
United States
More flights between these airports :: More routes between these airports
Route: +ZEFFR6 DARBI FRA J7 REBRG OHSEA2
File this flight plan on PilotEdge
Remarks:
Altitude:
(Current/Filed)
35,000ft
Speed:
(Current/Filed)
470kts
Departed: 22-Nov-20 01:18 PM
Arrived: 22-Nov-20 02:25 PM
Distance/Time
Traveled:
361nm/1:07
Distance/Time
To Go:
Arrived

Flight Plot

Page will automatically refresh every two minutes.

Flight plan parsing failed; only flown route is shown


Map Options




Map Legend


Flown Route
Filed Route
Departure Airport
Arrival Airport
Navaid (VOR, NDB)
Fix

Horizontal Profiles

Position Reports

Time Latitude Longitude Heading Altitude Ground
Speed
22-Nov-20 12:51 39.501843 -119.764795 91 4422ft 0kts
22-Nov-20 12:52 39.501843 -119.764795 91 4422ft 0kts
22-Nov-20 12:53 39.501843 -119.764795 91 4422ft 0kts
22-Nov-20 12:54 39.501843 -119.764795 91 4422ft 0kts
22-Nov-20 12:55 39.501843 -119.764795 91 4422ft 0kts
22-Nov-20 12:56 39.501843 -119.764795 91 4422ft 0kts
22-Nov-20 12:57 39.501843 -119.764795 91 4422ft 0kts
22-Nov-20 12:58 39.501843 -119.764795 91 4422ft 0kts
22-Nov-20 12:59 39.501843 -119.764795 91 4422ft 0kts
22-Nov-20 13:00 39.501843 -119.764795 91 4422ft 0kts
22-Nov-20 13:01 39.501843 -119.764795 91 4422ft 0kts
22-Nov-20 13:02 39.501843 -119.764795 91 4422ft 0kts
22-Nov-20 13:03 39.501843 -119.764795 91 4422ft 0kts
22-Nov-20 13:04 39.501843 -119.764795 91 4422ft 0kts
22-Nov-20 13:05 39.501843 -119.764795 91 4422ft 0kts
22-Nov-20 13:06 39.501843 -119.764795 91 4422ft 0kts
22-Nov-20 13:08 39.501843 -119.764795 91 4422ft 0kts
22-Nov-20 13:09 39.501843 -119.764795 91 4422ft 0kts
22-Nov-20 13:10 39.501843 -119.764795 91 4422ft 0kts
22-Nov-20 13:11 39.502130 -119.765006 214 4422ft 7kts
22-Nov-20 13:12 39.500878 -119.765459 293 4422ft 1kts
22-Nov-20 13:13 39.503391 -119.765714 359 4422ft 21kts
22-Nov-20 13:14 39.509186 -119.765692 1 4422ft 20kts
22-Nov-20 13:15 39.512599 -119.765159 359 4422ft 13kts
22-Nov-20 13:16 39.513727 -119.765626 279 4422ft 0kts
22-Nov-20 13:17 39.513731 -119.766171 266 4422ft 6kts
22-Nov-20 13:18 39.504441 -119.766767 180 4422ft 125kts
22-Nov-20 13:19 39.457020 -119.767899 181 6785ft 192kts
22-Nov-20 13:20 39.392827 -119.769649 178 9627ft 267kts
22-Nov-20 13:21 39.320528 -119.769714 181 13749ft 281kts
22-Nov-20 13:22 39.227138 -119.766376 180 15296ft 368kts
22-Nov-20 13:22 39.140848 -119.762899 180 17809ft 382kts
22-Nov-20 13:24 39.014761 -119.758127 180 20754ft 399kts
22-Nov-20 13:24 38.921222 -119.754609 180 22548ft 410kts
22-Nov-20 13:26 38.787261 -119.749599 181 24703ft 424kts
22-Nov-20 13:27 38.670623 -119.745244 182 26323ft 432kts
22-Nov-20 13:27 38.574183 -119.741605 183 28499ft 415kts
22-Nov-20 13:29 38.444278 -119.736808 184 30773ft 406kts
22-Nov-20 13:29 38.352092 -119.733394 185 32326ft 398kts
22-Nov-20 13:31 38.225087 -119.724153 183 34378ft 391kts
22-Nov-20 13:31 38.135003 -119.712760 183 35110ft 400kts
22-Nov-20 13:32 38.020209 -119.699477 182 35107ft 429kts
22-Nov-20 13:33 37.899719 -119.685569 182 35104ft 448kts
22-Nov-20 13:34 37.784564 -119.672318 182 35109ft 459kts
22-Nov-20 13:35 37.657813 -119.657803 182 35133ft 464kts
22-Nov-20 13:36 37.533890 -119.643689 182 35128ft 466kts
22-Nov-20 13:37 37.404921 -119.629103 182 35119ft 466kts
22-Nov-20 13:38 37.276082 -119.614524 182 35117ft 466kts
22-Nov-20 13:39 37.147030 -119.600047 183 35113ft 466kts
22-Nov-20 13:40 37.020998 -119.595714 188 35112ft 458kts
22-Nov-20 13:41 36.895187 -119.598722 188 35112ft 457kts
22-Nov-20 13:42 36.767888 -119.601116 188 35117ft 457kts
22-Nov-20 13:43 36.640912 -119.603322 188 35118ft 457kts
22-Nov-20 13:44 36.514153 -119.605468 188 35114ft 456kts
22-Nov-20 13:45 36.388618 -119.607632 188 35113ft 456kts
22-Nov-20 13:46 36.262496 -119.609796 188 35113ft 456kts
22-Nov-20 13:47 36.136302 -119.611947 188 35113ft 455kts
22-Nov-20 13:48 36.010238 -119.614511 190 35111ft 452kts
22-Nov-20 13:49 35.888358 -119.633176 196 35105ft 444kts
22-Nov-20 13:50 35.767970 -119.658144 196 35100ft 444kts
22-Nov-20 13:51 35.644460 -119.666191 177 35089ft 468kts
22-Nov-20 13:52 35.520599 -119.604251 164 35088ft 485kts
22-Nov-20 13:53 35.400371 -119.537773 164 35095ft 484kts
22-Nov-20 13:54 35.283396 -119.473472 164 35060ft 484kts
22-Nov-20 13:55 35.160347 -119.406059 165 35060ft 483kts
22-Nov-20 13:56 35.039857 -119.340282 165 35048ft 483kts
22-Nov-20 13:57 34.918349 -119.274156 165 35044ft 481kts
22-Nov-20 13:58 34.796383 -119.208013 165 35031ft 481kts
22-Nov-20 13:59 34.677898 -119.139768 161 34999ft 487kts
22-Nov-20 14:00 34.559343 -119.063020 161 33118ft 482kts
22-Nov-20 14:01 34.440838 -118.986206 160 30211ft 490kts
22-Nov-20 14:02 34.325419 -118.909244 158 27199ft 456kts
22-Nov-20 14:03 34.218150 -118.842215 164 24187ft 417kts
22-Nov-20 14:04 34.112401 -118.799371 167 21184ft 391kts
22-Nov-20 14:05 34.012702 -118.760443 167 18632ft 363kts
22-Nov-20 14:06 33.918490 -118.724133 166 15913ft 349kts
22-Nov-20 14:07 33.828105 -118.689264 165 13275ft 335kts
22-Nov-20 14:08 33.739556 -118.655235 166 13023ft 342kts
22-Nov-20 14:09 33.649417 -118.623513 167 13039ft 329kts
22-Nov-20 14:10 33.579481 -118.573730 125 11758ft 291kts
22-Nov-20 14:11 33.539446 -118.498600 123 9586ft 259kts
22-Nov-20 14:12 33.540616 -118.419477 71 7450ft 245kts
22-Nov-20 14:13 33.561913 -118.343325 71 6065ft 238kts
22-Nov-20 14:14 33.582832 -118.268604 71 5005ft 235kts
22-Nov-20 14:15 33.605514 -118.187757 71 5018ft 266kts
22-Nov-20 14:16 33.628720 -118.105288 71 5007ft 256kts
22-Nov-20 14:17 33.650397 -118.028069 71 3913ft 233kts
22-Nov-20 14:18 33.674351 -117.961678 57 2988ft 206kts
22-Nov-20 14:19 33.723864 -117.924714 28 2981ft 204kts
22-Nov-20 14:20 33.769717 -117.894927 35 1931ft 168kts
22-Nov-20 14:21 33.763732 -117.850936 141 1438ft 123kts
22-Nov-20 14:22 33.730932 -117.836331 187 1327ft 137kts
22-Nov-20 14:23 33.698495 -117.854632 207 449ft 119kts
22-Nov-20 14:24 33.675454 -117.868842 175 63ft 19kts
22-Nov-20 14:25 33.673941 -117.867666 118 63ft 10kts
22-Nov-20 14:26 33.672796 -117.867653 217 63ft 3kts
22-Nov-20 14:27 33.672005 -117.867333 204 63ft 0kts

Navigation Log

Ident Type
Flight plan parsing failed, navigation log unavailable